createdAt,value
2019-03-01T00:01:07.211Z,9.60
2019-03-01T00:03:37.463Z,9.50
2019-03-01T00:06:20.604Z,9.50
2019-03-01T00:09:01.333Z,9.50
2019-03-01T00:12:01.335Z,9.50
2019-03-01T00:14:44.807Z,9.40
2019-03-01T00:17:37.163Z,9.40
2019-03-01T00:20:08.748Z,9.40
2019-03-01T00:22:48.531Z,9.40
2019-03-01T00:25:28.126Z,9.40
2019-03-01T00:28:17.731Z,9.40
2019-03-01T00:31:10.300Z,9.40
2019-03-01T00:33:44.697Z,9.40
2019-03-01T00:36:35.546Z,9.40
2019-03-01T00:39:22.208Z,9.50
2019-03-01T00:42:05.536Z,9.50
2019-03-01T00:44:48.716Z,9.50
2019-03-01T00:47:15.382Z,9.40
2019-03-01T00:49:43.811Z,9.40
2019-03-01T00:52:15.306Z,9.40
2019-03-01T00:54:43.728Z,9.40
2019-03-01T00:57:12.316Z,9.30
2019-03-01T00:59:40.733Z,9.20
2019-03-01T01:02:09.162Z,9.20
2019-03-01T01:04:37.590Z,9.20
2019-03-01T01:07:05.994Z,9.20
2019-03-01T01:09:34.768Z,9.20
2019-03-01T01:12:03.411Z,9.20
2019-03-01T01:14:31.825Z,9.20
2019-03-01T01:17:00.326Z,9.30
2019-03-01T01:19:28.776Z,9.30
2019-03-01T01:21:57.209Z,9.30
2019-03-01T01:24:29.049Z,9.30
2019-03-01T01:26:57.472Z,9.20
2019-03-01T01:29:25.902Z,9.30
2019-03-01T01:31:54.325Z,9.30
2019-03-01T01:34:22.747Z,9.30
2019-03-01T01:36:51.186Z,9.30
2019-03-01T01:39:23.165Z,9.20
2019-03-01T01:41:51.674Z,9.20
2019-03-01T01:44:20.118Z,9.20
2019-03-01T01:46:48.530Z,9.20
2019-03-01T01:49:16.980Z,9.20
2019-03-01T01:51:45.390Z,9.20
2019-03-01T01:54:13.813Z,9.10
2019-03-01T01:56:42.250Z,9.10
2019-03-01T01:59:10.694Z,9.10
2019-03-01T02:01:39.209Z,9.10
2019-03-01T02:04:07.658Z,9.10
2019-03-01T02:06:36.110Z,9.10
2019-03-01T02:09:07.592Z,9.10
2019-03-01T02:11:36.027Z,9.10
2019-03-01T02:14:04.450Z,9.20
2019-03-01T02:16:32.909Z,9.20
2019-03-01T02:19:01.346Z,9.20
2019-03-01T02:21:29.830Z,9.20
2019-03-01T02:24:05.624Z,9.20
2019-03-01T02:26:34.025Z,9.20
2019-03-01T02:29:02.484Z,9.20
2019-03-01T02:31:31.246Z,9.20
2019-03-01T02:33:59.874Z,9.30
2019-03-01T02:36:28.322Z,9.30
2019-03-01T02:39:00.144Z,9.30
2019-03-01T02:41:28.590Z,9.30
2019-03-01T02:43:57.026Z,9.20
2019-03-01T02:46:25.445Z,9.20
2019-03-01T02:48:53.861Z,9.20
2019-03-01T02:51:22.264Z,9.20
2019-03-01T02:53:54.501Z,9.10
2019-03-01T02:56:22.903Z,9.10
2019-03-01T02:58:51.349Z,9.00
2019-03-01T03:01:19.834Z,9.00
2019-03-01T03:03:48.280Z,9.00
2019-03-01T03:06:18.355Z,9.00
2019-03-01T03:08:46.796Z,9.00
2019-03-01T03:11:15.251Z,8.90
2019-03-01T03:13:43.672Z,9.00
2019-03-01T03:16:12.379Z,8.90
2019-03-01T03:18:40.784Z,8.90
2019-03-01T03:21:09.295Z,8.90
2019-03-01T03:23:37.800Z,8.80
2019-03-01T03:26:10.394Z,8.80
2019-03-01T03:28:38.863Z,8.80
2019-03-01T03:31:07.308Z,8.80
2019-03-01T03:33:35.719Z,8.80
2019-03-01T03:36:04.619Z,8.80
2019-03-01T03:38:33.017Z,8.80
2019-03-01T03:41:01.447Z,8.70
2019-03-01T03:43:29.844Z,8.70
2019-03-01T03:45:58.255Z,8.70
2019-03-01T03:48:26.699Z,8.70
2019-03-01T03:50:55.209Z,8.70
2019-03-01T03:53:23.634Z,8.60
2019-03-01T03:55:52.048Z,8.60
2019-03-01T03:58:20.734Z,8.60
2019-03-01T04:00:49.135Z,8.60
2019-03-01T04:03:17.593Z,8.70
2019-03-01T04:05:46.427Z,8.60
2019-03-01T04:08:14.894Z,8.60
2019-03-01T04:10:43.295Z,8.50
2019-03-01T04:13:11.707Z,8.50
2019-03-01T04:15:40.130Z,8.50
2019-03-01T04:18:08.566Z,8.50
2019-03-01T04:20:37.159Z,8.50
2019-03-01T04:23:05.581Z,8.50
2019-03-01T04:25:37.111Z,8.50
2019-03-01T04:28:05.679Z,8.50
2019-03-01T04:30:34.379Z,8.40
2019-03-01T04:33:03.043Z,8.40
2019-03-01T04:35:31.482Z,8.40
2019-03-01T04:38:00.346Z,8.50
2019-03-01T04:40:28.743Z,8.40
2019-03-01T04:42:57.175Z,8.40
2019-03-01T04:45:25.731Z,8.40
2019-03-01T04:47:54.203Z,8.40
2019-03-01T04:50:22.700Z,8.40
2019-03-01T04:52:51.122Z,8.40
2019-03-01T04:55:22.445Z,8.40
2019-03-01T04:57:50.882Z,8.30
2019-03-01T05:00:23.966Z,8.30
2019-03-01T05:02:52.405Z,8.30
2019-03-01T05:05:21.356Z,8.20
2019-03-01T05:07:49.922Z,8.20
2019-03-01T05:10:18.436Z,8.20
2019-03-01T05:12:46.983Z,8.20
2019-03-01T05:15:17.461Z,8.10
2019-03-01T05:17:45.874Z,8.10
2019-03-01T05:20:14.607Z,8.10
2019-03-01T05:22:43.056Z,8.10
2019-03-01T05:25:11.923Z,8.10
2019-03-01T05:27:40.322Z,8.10
2019-03-01T05:30:11.886Z,8.10
2019-03-01T05:32:41.017Z,8.00
2019-03-01T05:35:10.212Z,8.00
2019-03-01T05:37:38.635Z,8.00
2019-03-01T05:40:12.338Z,7.90
2019-03-01T05:42:43.790Z,7.90
2019-03-01T05:45:15.114Z,7.90
2019-03-01T05:47:43.563Z,7.90
2019-03-01T05:50:14.262Z,8.00
2019-03-01T05:52:42.667Z,8.00
2019-03-01T05:55:12.334Z,7.90
2019-03-01T05:58:18.050Z,8.00
2019-03-01T06:00:47.472Z,8.00
2019-03-01T06:03:42.881Z,8.00
2019-03-01T06:06:17.014Z,8.00
2019-03-01T06:09:00.491Z,8.00
2019-03-01T06:11:32.047Z,8.00
2019-03-01T06:14:14.934Z,8.00
2019-03-01T06:16:49.488Z,7.90
2019-03-01T06:19:24.054Z,7.90
2019-03-01T06:22:16.788Z,7.80
2019-03-01T06:25:09.022Z,7.70
2019-03-01T06:27:56.298Z,7.70
2019-03-01T06:30:40.730Z,7.70
2019-03-01T06:33:12.252Z,7.70
2019-03-01T06:36:04.965Z,7.60
2019-03-01T06:39:05.016Z,7.60
2019-03-01T06:41:47.178Z,7.60
2019-03-01T06:44:21.238Z,7.70
2019-03-01T06:47:20.118Z,7.80
2019-03-01T06:49:52.967Z,7.80
2019-03-01T06:52:23.168Z,7.90
2019-03-01T06:54:51.573Z,7.90
2019-03-01T06:57:20.102Z,7.90
2019-03-01T06:59:52.612Z,8.20
2019-03-01T07:02:25.439Z,8.30
2019-03-01T07:04:53.879Z,8.40
2019-03-01T07:07:22.953Z,8.30
2019-03-01T07:09:51.355Z,8.30
2019-03-01T07:12:19.771Z,8.30
2019-03-01T07:14:51.386Z,8.20
2019-03-01T07:17:19.799Z,8.20
2019-03-01T07:19:51.800Z,8.30
2019-03-01T07:22:20.277Z,8.40
2019-03-01T07:24:48.788Z,8.50
2019-03-01T07:27:17.269Z,8.50
2019-03-01T07:29:45.823Z,8.60
2019-03-01T07:32:14.347Z,8.60
2019-03-01T07:34:42.785Z,8.60
2019-03-01T07:37:11.240Z,8.60
2019-03-01T07:39:39.714Z,8.70
2019-03-01T07:42:08.122Z,8.90
2019-03-01T07:44:36.542Z,9.00
2019-03-01T07:47:04.963Z,9.10
2019-03-01T07:49:33.373Z,9.10
2019-03-01T07:52:05.038Z,9.10
2019-03-01T07:54:31.958Z,9.10
2019-03-01T07:57:00.390Z,9.20
2019-03-01T07:59:33.462Z,9.10
2019-03-01T08:02:00.806Z,9.10
2019-03-01T08:04:29.697Z,9.20
2019-03-01T08:06:58.418Z,9.20
2019-03-01T08:09:26.866Z,9.30
2019-03-01T08:11:55.332Z,9.50
2019-03-01T08:14:31.345Z,9.50
2019-03-01T08:16:58.580Z,9.60
2019-03-01T08:19:27.026Z,9.70
2019-03-01T08:21:55.424Z,9.70
2019-03-01T08:24:23.859Z,9.70
2019-03-01T08:26:52.272Z,9.70
2019-03-01T08:29:23.787Z,9.60
2019-03-01T08:31:52.795Z,9.70
2019-03-01T08:34:22.356Z,9.70
2019-03-01T08:36:50.775Z,9.80
2019-03-01T08:39:19.223Z,9.80
2019-03-01T08:41:47.639Z,9.80
2019-03-01T08:44:16.059Z,10.00
2019-03-01T08:46:46.580Z,10.00
2019-03-01T08:49:15.240Z,10.00
2019-03-01T08:51:43.749Z,10.10
2019-03-01T08:54:12.181Z,9.90
2019-03-01T08:56:40.608Z,10.10
2019-03-01T08:59:09.101Z,10.20
2019-03-01T09:01:37.579Z,10.20
2019-03-01T09:04:09.453Z,10.30
2019-03-01T09:06:37.920Z,10.20
2019-03-01T09:09:08.631Z,10.20
2019-03-01T09:11:37.383Z,10.10
2019-03-01T09:14:05.844Z,10.00
2019-03-01T09:16:34.459Z,10.00
2019-03-01T09:19:02.899Z,10.10
2019-03-01T09:21:31.349Z,10.10
2019-03-01T09:23:59.795Z,10.20
2019-03-01T09:26:28.275Z,10.20
2019-03-01T09:28:56.712Z,10.10
2019-03-01T09:31:28.050Z,10.00
2019-03-01T09:33:57.355Z,9.80
2019-03-01T09:36:27.707Z,9.70
2019-03-01T09:38:56.111Z,9.70
2019-03-01T09:41:24.534Z,9.60
2019-03-01T09:43:52.972Z,9.60
2019-03-01T09:46:28.193Z,9.50
2019-03-01T09:48:55.627Z,9.40
2019-03-01T09:51:24.251Z,9.20
2019-03-01T09:53:52.663Z,9.10
2019-03-01T09:56:21.067Z,9.00
2019-03-01T09:58:49.558Z,8.90
2019-03-01T10:01:21.006Z,9.10
2019-03-01T10:03:50.567Z,9.20
2019-03-01T10:06:18.975Z,9.20
2019-03-01T10:08:47.420Z,9.30
2019-03-01T10:11:15.829Z,9.10
2019-03-01T10:13:44.262Z,9.10
2019-03-01T10:16:12.798Z,9.20
2019-03-01T10:18:41.253Z,9.40
2019-03-01T10:21:09.675Z,9.50
2019-03-01T10:23:38.154Z,9.50
2019-03-01T10:26:06.871Z,9.60
2019-03-01T10:28:35.320Z,9.50
2019-03-01T10:31:03.764Z,9.30
2019-03-01T10:33:32.207Z,9.30
2019-03-01T10:36:00.615Z,9.30
2019-03-01T10:38:29.143Z,9.40
2019-03-01T10:40:57.584Z,9.30
2019-03-01T10:43:26.022Z,9.30
2019-03-01T10:45:54.465Z,9.10
2019-03-01T10:48:22.885Z,8.90
2019-03-01T10:50:51.346Z,8.90
2019-03-01T10:53:19.762Z,9.00
2019-03-01T10:55:48.167Z,9.00
2019-03-01T10:58:16.632Z,9.00
2019-03-01T11:00:45.124Z,9.10
2019-03-01T11:03:13.543Z,9.10
2019-03-01T11:05:41.961Z,9.10
2019-03-01T11:08:10.413Z,9.00
2019-03-01T11:10:40.265Z,8.90
2019-03-01T11:13:11.363Z,8.90
2019-03-01T11:15:39.827Z,8.90
2019-03-01T11:18:08.491Z,9.10
2019-03-01T11:20:37.188Z,9.10
2019-03-01T11:23:05.957Z,9.10
2019-03-01T11:25:34.383Z,9.30
2019-03-01T11:28:02.995Z,9.50
2019-03-01T11:30:37.902Z,9.60
2019-03-01T11:33:06.547Z,9.60
2019-03-01T11:35:35.352Z,9.70
2019-03-01T11:38:03.795Z,9.70
2019-03-01T11:40:33.981Z,10.00
2019-03-01T11:43:02.662Z,10.40
2019-03-01T11:45:31.346Z,10.70
2019-03-01T11:47:59.833Z,10.90
2019-03-01T11:50:28.298Z,11.10
2019-03-01T11:52:56.711Z,11.00
2019-03-01T11:55:25.175Z,10.60
2019-03-01T11:57:53.836Z,10.30
2019-03-01T12:00:23.857Z,10.10
2019-03-01T12:02:57.231Z,9.80
2019-03-01T12:05:25.710Z,9.70
2019-03-01T12:07:54.158Z,9.50
2019-03-01T12:10:27.247Z,9.30
2019-03-01T12:12:55.851Z,9.00
2019-03-01T12:15:24.267Z,8.70
2019-03-01T12:17:52.776Z,8.70
2019-03-01T12:20:23.178Z,8.60
2019-03-01T12:22:51.599Z,8.80
2019-03-01T12:25:20.315Z,9.00
2019-03-01T12:27:48.773Z,9.30
2019-03-01T12:30:22.639Z,9.10
2019-03-01T12:32:51.134Z,9.30
2019-03-01T12:35:19.884Z,9.30
2019-03-01T12:37:48.318Z,9.50
2019-03-01T12:40:19.854Z,9.80
2019-03-01T12:42:48.315Z,9.90
2019-03-01T12:45:16.723Z,10.00
2019-03-01T12:47:45.190Z,10.20
2019-03-01T12:50:16.497Z,10.40
2019-03-01T12:52:44.938Z,10.50
2019-03-01T12:55:16.202Z,10.50
2019-03-01T12:57:44.848Z,10.50
2019-03-01T13:00:16.383Z,10.40
2019-03-01T13:02:44.794Z,10.30
2019-03-01T13:05:14.442Z,10.30
2019-03-01T13:07:42.897Z,10.60
2019-03-01T13:10:20.190Z,10.70
2019-03-01T13:12:48.602Z,10.50
2019-03-01T13:15:17.051Z,10.30
2019-03-01T13:17:45.481Z,10.20
2019-03-01T13:20:16.176Z,9.80
2019-03-01T13:22:44.591Z,9.70
2019-03-01T13:25:15.546Z,9.80
2019-03-01T13:27:43.539Z,9.80
2019-03-01T13:30:15.319Z,9.90
2019-03-01T13:32:43.821Z,9.90
2019-03-01T13:35:14.679Z,9.90
2019-03-01T13:37:44.247Z,10.00
2019-03-01T13:40:15.392Z,9.80
2019-03-01T13:42:47.053Z,9.70
2019-03-01T13:45:18.643Z,9.70
2019-03-01T13:47:47.088Z,9.60
2019-03-01T13:50:20.325Z,9.60
2019-03-01T13:52:50.256Z,9.70
2019-03-01T13:55:22.201Z,9.80
2019-03-01T13:57:51.147Z,9.80
2019-03-01T14:00:22.791Z,9.90
2019-03-01T14:02:51.186Z,9.90
2019-03-01T14:05:23.695Z,10.00
2019-03-01T14:07:55.856Z,10.00
2019-03-01T14:10:24.686Z,10.10
2019-03-01T14:12:53.900Z,10.10
2019-03-01T14:15:22.350Z,10.10
2019-03-01T14:17:51.003Z,10.10
2019-03-01T14:20:21.419Z,10.20
2019-03-01T14:22:50.342Z,10.10
2019-03-01T14:25:18.892Z,10.10
2019-03-01T14:27:47.337Z,10.20
2019-03-01T14:30:20.924Z,10.10
2019-03-01T14:32:56.953Z,10.10
2019-03-01T14:35:25.822Z,9.90
2019-03-01T14:37:55.212Z,9.50
2019-03-01T14:40:23.737Z,9.10
2019-03-01T14:42:52.592Z,9.10
2019-03-01T14:45:27.169Z,9.10
2019-03-01T14:47:55.968Z,9.10
2019-03-01T14:50:25.614Z,9.10
2019-03-01T14:52:58.470Z,9.20
2019-03-01T14:55:29.867Z,9.30
2019-03-01T14:58:03.954Z,9.30
2019-03-01T15:00:38.505Z,9.30
2019-03-01T15:03:18.980Z,9.40
2019-03-01T15:05:47.426Z,9.40
2019-03-01T15:08:15.956Z,9.40
2019-03-01T15:10:44.592Z,9.40
2019-03-01T15:13:13.058Z,9.30
2019-03-01T15:15:41.540Z,9.20
2019-03-01T15:18:10.122Z,9.10
2019-03-01T15:20:38.542Z,9.10
2019-03-01T15:23:06.978Z,9.00
2019-03-01T15:25:35.379Z,8.90
2019-03-01T15:28:03.850Z,8.80
2019-03-01T15:30:32.291Z,8.70
2019-03-01T15:33:00.743Z,8.60
2019-03-01T15:35:29.192Z,8.60
2019-03-01T15:37:57.626Z,8.60
2019-03-01T15:40:27.957Z,8.70
2019-03-01T15:42:56.182Z,8.70
2019-03-01T15:45:24.639Z,8.70
2019-03-01T15:47:53.062Z,8.70
2019-03-01T15:50:23.744Z,8.80
2019-03-01T15:52:51.642Z,8.70
2019-03-01T15:55:20.046Z,8.70
2019-03-01T15:57:48.459Z,8.70
2019-03-01T16:00:18.913Z,8.80
2019-03-01T16:02:49.995Z,8.80
2019-03-01T16:05:17.534Z,8.80
2019-03-01T16:07:45.965Z,8.90
2019-03-01T16:10:16.347Z,8.90
2019-03-01T16:12:44.742Z,8.90
2019-03-01T16:15:16.847Z,9.00
2019-03-01T16:17:45.279Z,9.00
2019-03-01T16:20:18.438Z,8.90
2019-03-01T16:22:53.811Z,8.80
2019-03-01T16:25:22.531Z,8.80
2019-03-01T16:27:54.171Z,8.80
2019-03-01T16:30:22.336Z,8.80
2019-03-01T16:32:50.877Z,8.70
2019-03-01T16:35:20.701Z,8.60
2019-03-01T16:37:53.495Z,8.70
2019-03-01T16:40:21.966Z,8.60
2019-03-01T16:42:54.410Z,8.60
2019-03-01T16:45:21.153Z,8.60
2019-03-01T16:47:50.763Z,8.50
2019-03-01T16:50:20.302Z,8.50
2019-03-01T16:52:51.639Z,8.50
2019-03-01T16:55:27.890Z,8.50
2019-03-01T16:58:06.160Z,8.50
2019-03-01T17:00:26.561Z,8.40
2019-03-01T17:03:00.599Z,8.40
2019-03-01T17:05:29.079Z,8.30
2019-03-01T17:08:05.558Z,8.30
2019-03-01T17:10:31.272Z,8.20
2019-03-01T17:12:59.734Z,8.20
2019-03-01T17:15:28.215Z,8.20
2019-03-01T17:17:56.646Z,8.20
2019-03-01T17:20:25.063Z,8.20
2019-03-01T17:22:53.582Z,8.20
2019-03-01T17:25:23.386Z,8.20
2019-03-01T17:27:52.210Z,8.20
2019-03-01T17:30:25.159Z,8.20
2019-03-01T17:32:53.825Z,8.20
2019-03-01T17:35:22.303Z,8.20
2019-03-01T17:37:50.754Z,8.20
2019-03-01T17:40:20.463Z,8.20
2019-03-01T17:42:48.910Z,8.20
2019-03-01T17:45:27.810Z,8.20
2019-03-01T17:47:56.791Z,8.10
2019-03-01T17:50:25.226Z,8.20
2019-03-01T17:52:53.646Z,8.10
2019-03-01T17:55:24.525Z,8.20
2019-03-01T17:57:53.354Z,8.10
2019-03-01T18:00:33.057Z,8.10
2019-03-01T18:03:01.503Z,8.10
2019-03-01T18:05:29.982Z,8.20
2019-03-01T18:07:59.906Z,8.10
2019-03-01T18:10:28.811Z,8.10
2019-03-01T18:12:58.720Z,8.10
2019-03-01T18:15:27.130Z,8.10
2019-03-01T18:17:55.670Z,8.10
2019-03-01T18:20:25.410Z,8.10
2019-03-01T18:22:53.854Z,8.10
2019-03-01T18:25:22.878Z,8.10
2019-03-01T18:27:53.108Z,8.10
2019-03-01T18:30:27.304Z,8.00
2019-03-01T18:32:55.715Z,8.00
2019-03-01T18:35:24.123Z,7.90
2019-03-01T18:37:55.120Z,8.00
2019-03-01T18:40:22.708Z,7.90
2019-03-01T18:42:51.211Z,8.00
2019-03-01T18:45:21.407Z,7.90
2019-03-01T18:47:49.860Z,7.90
2019-03-01T18:50:32.345Z,7.90
2019-03-01T18:53:03.785Z,7.80
2019-03-01T18:55:32.573Z,7.80
2019-03-01T18:58:01.548Z,7.90
2019-03-01T19:00:39.375Z,7.90
2019-03-01T19:03:07.996Z,7.90
2019-03-01T19:05:39.635Z,7.90
2019-03-01T19:08:06.786Z,7.90
2019-03-01T19:10:36.246Z,8.00
2019-03-01T19:13:05.301Z,8.00
2019-03-01T19:15:34.105Z,8.00
2019-03-01T19:18:02.694Z,8.00
2019-03-01T19:20:33.914Z,8.00
2019-03-01T19:23:02.467Z,8.10
2019-03-01T19:25:30.874Z,8.10
2019-03-01T19:27:59.358Z,8.10
2019-03-01T19:30:27.786Z,8.10
2019-03-01T19:32:58.974Z,8.00
2019-03-01T19:35:29.640Z,7.90
2019-03-01T19:37:58.182Z,7.90
2019-03-01T19:40:30.278Z,7.80
2019-03-01T19:43:00.780Z,7.70
2019-03-01T19:45:29.219Z,7.70
2019-03-01T19:48:02.990Z,7.70
2019-03-01T19:50:32.402Z,7.60
2019-03-01T19:53:01.006Z,7.60
2019-03-01T19:55:29.466Z,7.60
2019-03-01T19:57:59.267Z,7.60
2019-03-01T20:00:29.228Z,7.60
2019-03-01T20:02:57.748Z,7.60
2019-03-01T20:05:31.658Z,7.60
2019-03-01T20:08:01.998Z,7.70
2019-03-01T20:10:30.423Z,7.70
2019-03-01T20:13:00.073Z,7.70
2019-03-01T20:15:30.495Z,7.70
2019-03-01T20:17:58.938Z,7.70
2019-03-01T20:20:29.816Z,7.70
2019-03-01T20:22:59.627Z,7.70
2019-03-01T20:25:28.042Z,7.70
2019-03-01T20:27:56.481Z,7.70
2019-03-01T20:30:30.237Z,7.80
2019-03-01T20:32:56.384Z,7.80
2019-03-01T20:35:26.147Z,7.80
2019-03-01T20:37:54.787Z,7.80
2019-03-01T20:40:26.757Z,7.80
2019-03-01T20:43:00.516Z,7.80
2019-03-01T20:45:38.623Z,7.80
2019-03-01T20:48:07.066Z,7.80
2019-03-01T20:50:36.552Z,7.80
2019-03-01T20:53:05.304Z,7.70
2019-03-01T20:55:37.050Z,7.70
2019-03-01T20:58:04.327Z,7.80
2019-03-01T21:00:33.146Z,7.70
2019-03-01T21:03:01.655Z,7.70
2019-03-01T21:05:30.611Z,7.70
2019-03-01T21:07:59.331Z,7.70
2019-03-01T21:10:29.835Z,7.70
2019-03-01T21:12:58.284Z,7.70
2019-03-01T21:15:26.784Z,7.70
2019-03-01T21:17:57.080Z,7.70
2019-03-01T21:20:25.430Z,7.60
2019-03-01T21:22:53.844Z,7.60
2019-03-01T21:25:23.592Z,7.60
2019-03-01T21:27:57.587Z,7.70
2019-03-01T21:30:31.641Z,7.60
2019-03-01T21:33:00.097Z,7.60
2019-03-01T21:35:28.519Z,7.60
2019-03-01T21:37:56.995Z,7.60
2019-03-01T21:40:25.450Z,7.50
2019-03-01T21:43:01.312Z,7.50
2019-03-01T21:45:29.714Z,7.50
2019-03-01T21:47:58.149Z,7.50
2019-03-01T21:50:26.559Z,7.50
2019-03-01T21:52:55.014Z,7.40
2019-03-01T21:55:28.490Z,7.40
2019-03-01T21:58:03.367Z,7.40
2019-03-01T22:00:31.521Z,7.40
2019-03-01T22:03:00.094Z,7.40
2019-03-01T22:05:28.594Z,7.40
2019-03-01T22:07:57.018Z,7.30
2019-03-01T22:10:25.672Z,7.30
2019-03-01T22:12:56.800Z,7.30
2019-03-01T22:15:28.446Z,7.30
2019-03-01T22:17:56.924Z,7.30
2019-03-01T22:20:25.767Z,7.30
2019-03-01T22:22:55.710Z,7.30
2019-03-01T22:25:24.125Z,7.30
2019-03-01T22:27:52.591Z,7.30
2019-03-01T22:30:32.187Z,7.30
2019-03-01T22:33:00.920Z,7.30
2019-03-01T22:35:29.429Z,7.20
2019-03-01T22:38:00.857Z,7.30
2019-03-01T22:40:29.323Z,7.20
2019-03-01T22:42:57.978Z,7.20
2019-03-01T22:45:26.642Z,7.20
2019-03-01T22:47:55.154Z,7.20
2019-03-01T22:50:23.589Z,7.20
2019-03-01T22:52:51.998Z,7.20
2019-03-01T22:55:21.008Z,7.20
2019-03-01T22:57:49.414Z,7.20
2019-03-01T23:00:47.751Z,7.20
2019-03-01T23:03:18.968Z,7.20
2019-03-01T23:05:48.185Z,7.20
2019-03-01T23:08:16.604Z,7.20
2019-03-01T23:10:45.310Z,7.20
2019-03-01T23:13:16.991Z,7.20
2019-03-01T23:15:44.625Z,7.20
2019-03-01T23:18:14.004Z,7.20
2019-03-01T23:20:42.451Z,7.20
2019-03-01T23:23:10.896Z,7.20
2019-03-01T23:25:39.326Z,7.20
2019-03-01T23:28:09.195Z,7.20
2019-03-01T23:30:38.283Z,7.10
2019-03-01T23:33:06.733Z,7.10
2019-03-01T23:35:35.631Z,7.10
2019-03-01T23:38:04.054Z,7.10
2019-03-01T23:40:32.702Z,7.00
2019-03-01T23:43:02.637Z,7.00
2019-03-01T23:45:31.062Z,6.90
2019-03-01T23:47:59.583Z,6.90
2019-03-01T23:50:28.116Z,6.90
2019-03-01T23:52:58.775Z,6.90
2019-03-01T23:55:26.700Z,6.90
2019-03-01T23:57:55.486Z,6.80
